Time;durP1;ratioP1;P1;durP2;ratioP2;P2;SDS_P1;SDS_P2;PMS_P1;PMS_P2;Temp;Humidity;BMP_temperature;BMP_pressure;BME280_temperature;BME280_humidity;BME280_pressure;Samples;Min_cycle;Max_cycle;Signal;HPM_P1;HPM_P2
2021/12/15 00:02:23;;;;;;;58.30;34.97;;;;;;;-142.75;100.00;78543.19;5053060;28;20421;-68
2021/12/15 00:04:51;;;;;;;60.10;33.42;;;;;;;-142.75;100.00;78545.16;5053146;28;20082;-68
2021/12/15 00:07:19;;;;;;;61.28;34.53;;;;;;;-142.75;100.00;78547.13;5052965;28;20021;-68
2021/12/15 00:09:44;;;;;;;57.33;33.83;;;;;;;-142.75;100.00;78551.06;5051746;28;20055;-67
2021/12/15 00:12:13;;;;;;;60.05;33.42;;;;;;;-142.75;100.00;78547.13;5052439;28;20049;-68
2021/12/15 00:14:38;;;;;;;58.53;34.05;;;;;;;-142.75;100.00;78551.06;5052481;28;20560;-68
2021/12/15 00:17:04;;;;;;;59.90;34.03;;;;;;;-142.75;100.00;78551.06;5052475;28;20029;-68
2021/12/15 00:19:29;;;;;;;63.63;35.38;;;;;;;-142.75;100.00;78547.13;5052550;28;20589;-67
2021/12/15 00:21:56;;;;;;;67.72;35.72;;;;;;;-142.75;100.00;78551.06;5033899;28;20371;-67
2021/12/15 00:24:22;;;;;;;65.72;35.85;;;;;;;-142.75;100.00;78553.03;5052623;28;20037;-68
2021/12/15 00:26:47;;;;;;;64.57;35.65;;;;;;;-142.75;100.00;78547.13;5052409;28;20633;-68
2021/12/15 00:29:12;;;;;;;64.35;36.00;;;;;;;-142.75;100.00;78555.00;5052337;28;20029;-68
2021/12/15 00:31:38;;;;;;;59.55;34.50;;;;;;;-142.75;100.00;78547.13;5051345;28;20453;-68
2021/12/15 00:34:07;;;;;;;59.83;34.53;;;;;;;-142.75;100.00;78545.16;5052136;28;20107;-68
2021/12/15 00:36:32;;;;;;;62.70;34.25;;;;;;;-142.75;100.00;78551.06;5052207;28;20036;-67
2021/12/15 00:38:57;;;;;;;55.53;32.55;;;;;;;-142.75;100.00;78543.19;5052073;28;20033;-67
2021/12/15 00:41:23;;;;;;;55.65;34.08;;;;;;;-142.75;100.00;78547.13;5033328;28;20029;-66
2021/12/15 00:43:48;;;;;;;60.55;34.00;;;;;;;-142.75;100.00;78549.09;5052366;28;20067;-68
2021/12/15 00:46:14;;;;;;;62.75;35.67;;;;;;;-142.75;100.00;78556.97;5034092;28;20040;-68
2021/12/15 00:48:40;;;;;;;61.22;35.08;;;;;;;-142.75;100.00;78549.09;5051996;28;20166;-68
2021/12/15 00:51:06;;;;;;;59.60;33.83;;;;;;;-142.75;100.00;78555.00;5051024;28;20478;-68
2021/12/15 00:53:31;;;;;;;65.78;35.42;;;;;;;-142.75;100.00;78560.91;5050584;28;20101;-68
2021/12/15 00:55:57;;;;;;;61.27;33.70;;;;;;;-142.75;100.00;78555.00;5032055;28;20387;-68
2021/12/15 00:58:23;;;;;;;63.20;33.30;;;;;;;-142.75;100.00;78560.91;5034135;28;20302;-67
2021/12/15 01:00:55;;;;;;;63.15;35.58;;;;;;;-142.75;100.00;78555.00;5033432;28;20021;-68
2021/12/15 01:03:21;;;;;;;62.13;35.55;;;;;;;-142.75;100.00;78547.13;5052018;28;20032;-67
2021/12/15 01:05:51;;;;;;;62.90;35.25;;;;;;;-142.75;100.00;78558.94;5033732;28;20368;-68
2021/12/15 01:08:22;;;;;;;66.70;35.10;;;;;;;-142.75;100.00;78553.03;5051636;28;20040;-68
2021/12/15 01:21:31;;;;;;;61.90;33.88;;;;;;;-142.75;100.00;78551.06;5050511;28;20087;-67
2021/12/15 01:23:56;;;;;;;64.75;33.45;;;;;;;-142.75;100.00;78558.94;5051204;28;20029;-67
2021/12/15 01:26:22;;;;;;;67.85;35.47;;;;;;;-142.75;100.00;78562.88;5051494;28;20390;-67
2021/12/15 01:28:48;;;;;;;63.20;35.45;;;;;;;-142.75;100.00;78564.84;5051428;28;20494;-68
2021/12/15 01:31:13;;;;;;;70.90;35.75;;;;;;;-142.75;100.00;78562.88;5050249;28;20025;-68
2021/12/15 01:33:39;;;;;;;63.35;34.88;;;;;;;-142.75;100.00;78558.94;5033143;28;20108;-67
2021/12/15 01:36:06;;;;;;;65.22;34.75;;;;;;;-142.75;100.00;78558.94;5050955;28;20064;-67
2021/12/15 01:38:34;;;;;;;62.13;35.45;;;;;;;-142.75;100.00;78566.81;5050971;28;20025;-68
2021/12/15 01:41:00;;;;;;;65.22;34.97;;;;;;;-142.75;100.00;78574.69;5050193;28;20387;-68
2021/12/15 01:49:40;;;;;;;60.35;33.90;;;;;;;-142.75;100.00;78576.66;5051117;28;20036;-67
2021/12/15 01:52:13;;;;;;;62.17;32.95;;;;;;;-142.75;100.00;78578.63;5045882;28;20063;-68
2021/12/15 01:54:44;;;;;;;57.70;32.60;;;;;;;-142.75;100.00;78578.63;5050755;28;20426;-68
2021/12/15 01:57:11;;;;;;;64.53;34.40;;;;;;;-142.75;100.00;78582.59;5048955;28;20027;-68
2021/12/15 01:59:38;;;;;;;63.22;31.80;;;;;;;-142.75;100.00;78594.41;5032279;28;20024;-66
2021/12/15 02:02:04;;;;;;;58.55;33.83;;;;;;;-142.75;100.00;78584.56;5032310;28;20090;-67
2021/12/15 02:04:30;;;;;;;60.85;32.17;;;;;;;-142.75;100.00;78582.59;5050289;28;20510;-67
2021/12/15 02:06:55;;;;;;;56.67;33.08;;;;;;;-142.75;100.00;78590.47;5032560;28;20139;-68
2021/12/15 02:09:48;;;;;;;57.88;31.85;;;;;;;-142.75;100.00;78588.50;5050689;28;20073;-67
2021/12/15 02:12:12;;;;;;;59.15;31.33;;;;;;;-142.75;100.00;78584.56;5049732;28;21109;-68
2021/12/15 02:14:37;;;;;;;60.92;31.35;;;;;;;-142.75;100.00;78586.53;5032514;28;20028;-68
2021/12/15 02:17:03;;;;;;;57.67;32.20;;;;;;;-142.75;100.00;78588.50;5032545;28;20444;-68
2021/12/15 02:19:28;;;;;;;63.75;33.05;;;;;;;-142.75;100.00;78592.44;5050301;28;20025;-67
2021/12/15 02:21:54;;;;;;;56.72;31.67;;;;;;;-142.75;100.00;78602.28;5031635;28;20082;-68
2021/12/15 02:24:22;;;;;;;58.22;32.35;;;;;;;-142.75;100.00;78598.34;5050654;28;20028;-68
2021/12/15 02:26:52;;;;;;;59.05;32.42;;;;;;;-142.75;100.00;78596.38;5050410;28;20124;-67
2021/12/15 02:29:20;;;;;;;57.50;30.95;;;;;;;-142.75;100.00;78598.34;5050453;28;20020;-68
2021/12/15 02:37:18;;;;;;;56.75;30.60;;;;;;;-142.75;100.00;78596.38;5050176;28;20182;-68
2021/12/15 02:40:00;;;;;;;54.58;31.35;;;;;;;-142.75;100.00;78594.41;5049079;28;20048;-67
2021/12/15 02:42:33;;;;;;;54.88;31.02;;;;;;;-142.75;100.00;78590.47;5031891;28;20021;-67
2021/12/15 02:44:58;;;;;;;51.33;27.90;;;;;;;-142.75;100.00;78586.53;5049914;28;20031;-67
2021/12/15 02:47:27;;;;;;;48.47;28.02;;;;;;;-142.75;100.00;78590.47;5049704;28;20103;-66
2021/12/15 02:49:55;;;;;;;53.17;28.95;;;;;;;-142.75;100.00;78580.59;5031167;28;20094;-67
2021/12/15 02:52:20;;;;;;;54.45;29.15;;;;;;;-142.75;100.00;78586.53;5049819;28;20025;-67
2021/12/15 02:54:46;;;;;;;51.13;29.55;;;;;;;-142.75;100.00;78592.44;5049849;28;20074;-68
2021/12/15 02:57:13;;;;;;;56.05;29.27;;;;;;;-142.75;100.00;78578.63;5030649;28;20299;-67
2021/12/15 02:59:56;;;;;;;50.55;29.08;;;;;;;-142.75;100.00;78576.66;5049200;28;20029;-67
2021/12/15 03:05:06;;;;;;;51.58;30.15;;;;;;;-142.75;100.00;78594.41;5049778;28;20121;-66
2021/12/15 03:07:40;;;;;;;56.30;29.90;;;;;;;-142.75;100.00;78584.56;5049594;28;20027;-67
2021/12/15 03:15:37;;;;;;;51.90;29.52;;;;;;;-142.75;100.00;78582.59;5049500;28;20337;-67
2021/12/15 03:18:28;;;;;;;57.72;29.85;;;;;;;-142.75;100.00;78578.63;5048657;28;20032;-67
2021/12/15 03:21:00;;;;;;;50.83;28.88;;;;;;;-142.75;100.00;78580.59;5043641;28;20082;-66
2021/12/15 03:23:35;;;;;;;59.47;28.73;;;;;;;-142.75;100.00;78584.56;5049186;28;20025;-67
2021/12/15 03:26:01;;;;;;;52.95;29.98;;;;;;;-142.75;100.00;78576.66;5049232;28;20025;-67
2021/12/15 03:34:07;;;;;;;52.78;29.75;;;;;;;-142.75;100.00;78576.66;5049298;28;20473;-67
2021/12/15 03:37:02;;;;;;;52.85;28.95;;;;;;;-142.75;100.00;78568.78;5031412;28;20032;-67
2021/12/15 03:39:32;;;;;;;52.28;28.92;;;;;;;-142.75;100.00;78572.72;5048933;28;20111;-66
2021/12/15 03:42:03;;;;;;;55.78;28.92;;;;;;;-142.75;100.00;78578.63;5030521;28;20029;-67
2021/12/15 03:44:32;;;;;;;56.88;29.50;;;;;;;-142.75;100.00;78586.53;5031424;28;20072;-67
2021/12/15 03:46:58;;;;;;;54.30;29.40;;;;;;;-142.75;100.00;78594.41;5031284;28;20044;-68
2021/12/15 03:49:23;;;;;;;;;;;;;;;-142.75;100.00;78590.47;5050870;28;20043;-66
2021/12/15 03:51:49;;;;;;;51.80;28.02;;;;;;;-142.75;100.00;78602.28;5049977;28;20015;-70
2021/12/15 03:54:14;;;;;;;57.58;29.60;;;;;;;-142.75;100.00;78612.13;5048981;28;20092;-66
2021/12/15 03:56:41;;;;;;;56.17;30.23;;;;;;;-142.75;100.00;78602.28;5029294;28;20029;-66
2021/12/15 03:59:07;;;;;;;56.05;30.35;;;;;;;-142.75;100.00;78616.06;5048986;28;20057;-66
2021/12/15 04:01:33;;;;;;;54.65;29.55;;;;;;;-142.75;100.00;78602.28;5030184;28;20446;-67
2021/12/15 04:03:58;;;;;;;52.17;28.67;;;;;;;-142.75;100.00;78596.38;5048734;28;20033;-66
2021/12/15 04:06:36;;;;;;;53.08;29.83;;;;;;;-142.75;100.00;78578.63;5048781;28;20116;-66
2021/12/15 04:09:03;;;;;;;45.40;27.50;;;;;;;-142.75;100.00;78592.44;5030921;28;20033;-66
2021/12/15 04:11:34;;;;;;;53.15;29.50;;;;;;;-142.75;100.00;78590.47;5048020;28;20463;-66
2021/12/15 04:14:10;;;;;;;50.13;28.50;;;;;;;-142.75;100.00;78594.41;5048534;28;20470;-67
2021/12/15 04:19:09;;;;;;;47.83;27.58;;;;;;;-142.75;100.00;78582.59;5048759;28;20032;-66
2021/12/15 04:21:36;;;;;;;52.15;29.40;;;;;;;-142.75;100.00;78590.47;5048004;28;20024;-67
2021/12/15 04:24:02;;;;;;;54.25;28.50;;;;;;;-142.75;100.00;78582.59;5030619;28;20336;-67
2021/12/15 04:26:28;;;;;;;;;;;;;;;-142.75;100.00;78574.69;5049048;28;20029;-66
2021/12/15 04:28:54;;;;;;;54.70;29.55;;;;;;;-142.75;100.00;78586.53;5050501;28;19927;-66
2021/12/15 04:31:23;;;;;;;52.92;27.90;;;;;;;-142.75;100.00;78590.47;5051811;28;20457;-66
2021/12/15 04:33:55;;;;;;;51.95;28.85;;;;;;;-142.75;100.00;78598.34;5052081;28;20544;-66
2021/12/15 04:36:23;;;;;;;51.47;28.27;;;;;;;-142.75;100.00;78588.50;5034579;28;20028;-66
2021/12/15 04:38:50;;;;;;;56.53;28.73;;;;;;;-142.75;100.00;78594.41;5052357;28;20092;-67
2021/12/15 04:41:20;;;;;;;50.00;28.98;;;;;;;-142.75;100.00;78588.50;5033697;28;20041;-66
2021/12/15 04:43:55;;;;;;;52.67;30.73;;;;;;;-142.75;100.00;78594.41;5051938;28;20024;-66
2021/12/15 04:46:22;;;;;;;53.00;28.63;;;;;;;-142.75;100.00;78594.41;5052252;28;20522;-66
2021/12/15 04:48:47;;;;;;;52.47;28.13;;;;;;;-142.75;100.00;78598.34;5052082;28;20029;-66
2021/12/15 04:51:12;;;;;;;60.13;29.42;;;;;;;-142.75;100.00;78606.22;5033123;28;20044;-66
2021/12/15 04:53:38;;;;;;;59.15;28.75;;;;;;;-142.75;100.00;78610.16;5051674;28;20032;-66
2021/12/15 04:56:05;;;;;;;55.60;28.05;;;;;;;-142.75;100.00;78594.41;5050792;28;20029;-66
2021/12/15 04:58:31;;;;;;;58.47;30.10;;;;;;;-142.75;100.00;78596.38;5044327;28;20478;-66
2021/12/15 05:00:59;;;;;;;55.45;28.92;;;;;;;-142.75;100.00;78590.47;5071023;28;20028;-66
2021/12/15 05:03:25;;;;;;;57.72;31.23;;;;;;;-142.75;100.00;78592.44;5049803;28;20021;-66
2021/12/15 05:05:52;;;;;;;54.78;28.75;;;;;;;-142.75;100.00;78588.50;5051789;28;20500;-67
2021/12/15 05:08:17;;;;;;;65.40;29.67;;;;;;;-142.75;100.00;78594.41;5051844;28;20483;-66
2021/12/15 05:10:43;;;;;;;62.15;30.00;;;;;;;-142.75;100.00;78594.41;5050651;28;20028;-66
2021/12/15 05:13:10;;;;;;;63.78;29.70;;;;;;;-142.75;100.00;78596.38;5051548;28;20053;-66
2021/12/15 05:15:36;;;;;;;62.65;31.80;;;;;;;-142.75;100.00;78588.50;5051422;28;20032;-66
2021/12/15 05:18:05;;;;;;;65.43;30.63;;;;;;;-142.75;100.00;78594.41;5051271;28;20028;-66
2021/12/15 05:20:32;;;;;;;57.92;29.98;;;;;;;-142.75;100.00;78610.16;5050715;28;20466;-66
2021/12/15 05:22:58;;;;;;;57.40;29.33;;;;;;;-142.75;100.00;78594.41;5051176;28;20024;-66
2021/12/15 05:25:23;;;;;;;62.92;29.40;;;;;;;-142.75;100.00;78596.38;5051343;28;20017;-65
2021/12/15 05:27:49;;;;;;;57.63;29.42;;;;;;;-142.75;100.00;78600.31;5066807;28;20387;-66
2021/12/15 05:30:17;;;;;;;64.35;30.23;;;;;;;-142.75;100.00;78604.25;5070368;28;20456;-65
2021/12/15 05:32:44;;;;;;;69.10;30.17;;;;;;;-142.75;100.00;78616.06;5071804;28;20036;-68
2021/12/15 05:35:14;;;;;;;65.60;30.02;;;;;;;-142.75;100.00;78618.03;5046320;28;20048;-68
2021/12/15 05:37:40;;;;;;;66.95;30.70;;;;;;;-142.75;100.00;78604.25;5050024;28;20025;-68
2021/12/15 05:40:07;;;;;;;59.55;29.10;;;;;;;-142.75;100.00;78606.22;5063591;28;20082;-68
2021/12/15 05:42:32;;;;;;;62.88;27.92;;;;;;;-142.75;100.00;78594.41;5052882;28;20051;-68
2021/12/15 05:44:58;;;;;;;57.75;29.33;;;;;;;-142.75;100.00;78602.28;5070786;28;20052;-68
2021/12/15 05:47:25;;;;;;;61.03;28.50;;;;;;;-142.75;100.00;78592.44;5052783;28;20111;-67
2021/12/15 05:49:52;;;;;;;60.75;29.80;;;;;;;-142.75;100.00;78602.28;5070140;28;20021;-67
2021/12/15 05:52:18;;;;;;;62.45;29.60;;;;;;;-142.75;100.00;78602.28;5070880;28;20387;-69
2021/12/15 05:54:44;;;;;;;73.97;29.02;;;;;;;-142.75;100.00;78620.00;5057755;28;20454;-66
2021/12/15 05:57:10;;;;;;;66.55;28.33;;;;;;;-142.75;100.00;78606.22;5063160;28;20104;-68
2021/12/15 05:59:35;;;;;;;67.22;29.60;;;;;;;-142.75;100.00;78606.22;5070397;28;20099;-67
2021/12/15 06:02:00;;;;;;;61.67;28.60;;;;;;;-142.75;100.00;78592.44;5066152;28;20124;-69
2021/12/15 06:04:26;;;;;;;67.70;28.63;;;;;;;-142.75;100.00;78602.28;5050559;28;20108;-69
2021/12/15 06:06:51;;;;;;;67.35;30.83;;;;;;;-142.75;100.00;78614.09;5050569;28;20033;-70
2021/12/15 06:09:17;;;;;;;63.30;29.95;;;;;;;-142.75;100.00;78625.91;5032935;28;20053;-69
2021/12/15 06:11:47;;;;;;;68.60;31.20;;;;;;;-142.75;100.00;78633.78;5052689;28;20029;-66
2021/12/15 06:14:12;;;;;;;65.78;29.20;;;;;;;-142.75;100.00;78633.78;5070150;28;20058;-66
2021/12/15 06:16:38;;;;;;;66.32;31.42;;;;;;;-142.75;100.00;78629.84;5057831;28;20032;-67
2021/12/15 06:19:04;;;;;;;65.32;29.25;;;;;;;-142.75;100.00;78637.72;5060352;28;20029;-69
2021/12/15 06:21:31;;;;;;;61.78;29.40;;;;;;;-142.75;100.00;78631.81;5059977;28;20103;-68
2021/12/15 06:23:56;;;;;;;74.03;32.95;;;;;;;-142.75;100.00;78639.69;5069889;28;20021;-68
2021/12/15 06:26:22;;;;;;;70.00;32.10;;;;;;;-142.75;100.00;78641.66;5052503;28;20024;-69
2021/12/15 06:28:48;;;;;;;70.20;31.55;;;;;;;-142.75;100.00;78653.47;5070047;28;20107;-68
2021/12/15 06:31:16;;;;;;;67.80;32.58;;;;;;;-142.75;100.00;78645.59;5069156;28;20103;-67
2021/12/15 06:33:42;;;;;;;73.88;32.00;;;;;;;-142.75;100.00;78641.66;5050026;28;20067;-70
2021/12/15 06:36:08;;;;;;;;;;;;;;;-142.75;100.00;78645.59;5054234;28;20035;-69
2021/12/15 06:38:38;;;;;;;72.43;33.53;;;;;;;-142.75;100.00;78637.72;5052923;28;19912;-68
2021/12/15 06:41:06;;;;;;;74.15;32.90;;;;;;;-142.75;100.00;78641.66;5048939;28;20037;-69
2021/12/15 06:43:32;;;;;;;78.90;35.50;;;;;;;-142.75;100.00;78641.66;5032063;28;20024;-69
2021/12/15 06:59:25;;;;;;;70.68;32.90;;;;;;;-142.75;100.00;78635.75;5065405;28;20133;-68
2021/12/15 07:01:51;;;;;;;71.70;32.92;;;;;;;-142.75;100.00;78623.94;5068982;28;20048;-68
2021/12/15 07:04:21;;;;;;;67.53;31.55;;;;;;;-142.75;100.00;78637.72;5069797;28;20020;-68
2021/12/15 07:06:48;;;;;;;69.22;32.25;;;;;;;-142.75;100.00;78635.75;5069092;28;20020;-67
2021/12/15 07:09:14;;;;;;;70.50;33.85;;;;;;;-142.75;100.00;78645.59;5049186;28;20021;-68
2021/12/15 07:11:39;;;;;;;71.72;34.72;;;;;;;-142.75;100.00;78641.66;5048489;28;20044;-69
2021/12/15 07:14:05;;;;;;;70.13;33.95;;;;;;;-142.75;100.00;78635.75;5031400;28;20049;-68
2021/12/15 07:16:32;;;;;;;72.15;33.00;;;;;;;-142.75;100.00;78645.59;5031433;28;20059;-68
2021/12/15 07:19:19;;;;;;;73.05;33.78;;;;;;;-142.75;100.00;78641.66;5062984;28;20112;-69
2021/12/15 07:21:54;;;;;;;65.43;32.65;;;;;;;-142.75;100.00;78639.69;5068350;28;20016;-68
2021/12/15 07:24:21;;;;;;;72.00;32.38;;;;;;;-142.75;100.00;78627.88;5069633;28;20020;-68
2021/12/15 07:26:47;;;;;;;65.03;32.00;;;;;;;-142.75;100.00;78647.56;5069073;28;20035;-68
2021/12/15 07:29:12;;;;;;;;;;;;;;;-142.75;100.00;78639.69;5050341;28;20116;-68
2021/12/15 07:31:38;;;;;;;69.30;31.98;;;;;;;-142.75;100.00;78639.69;5048335;28;20007;-66
2021/12/15 07:34:04;;;;;;;70.90;31.77;;;;;;;-142.75;100.00;78645.59;5045852;28;20054;-65
2021/12/15 07:36:29;;;;;;;;;;;;;;;-142.75;100.00;78647.56;5043650;28;20479;-67
2021/12/15 07:38:56;;;;;;;69.15;32.25;;;;;;;-142.75;100.00;78637.72;5043845;28;19920;-66
2021/12/15 07:41:30;;;;;;;61.50;29.63;;;;;;;-142.75;100.00;78641.66;5026416;28;20107;-66
2021/12/15 07:44:02;;;;;;;72.97;29.92;;;;;;;-142.75;100.00;78643.63;5043131;28;20406;-68
2021/12/15 07:46:28;;;;;;;65.82;31.25;;;;;;;-142.75;100.00;78643.63;5027236;28;20033;-68
2021/12/15 07:48:54;;;;;;;;;;;;;;;-142.75;100.00;78639.69;5044270;28;20039;-69
2021/12/15 07:51:19;;;;;;;68.50;31.20;;;;;;;-142.75;100.00;78643.63;5043476;28;20007;-68
2021/12/15 07:53:44;;;;;;;63.67;30.17;;;;;;;-142.75;100.00;78645.59;5044467;28;20033;-68
2021/12/15 07:56:12;;;;;;;66.07;30.55;;;;;;;-142.75;100.00;78649.53;5044663;28;20021;-68
2021/12/15 07:58:37;;;;;;;74.90;30.17;;;;;;;-142.75;100.00;78651.50;5042037;28;20033;-68
2021/12/15 08:01:04;;;;;;;69.35;30.52;;;;;;;-142.75;100.00;78657.41;5043942;28;20031;-68
2021/12/15 08:03:31;;;;;;;63.25;30.05;;;;;;;-142.75;100.00;78643.63;5046553;28;20029;-70
2021/12/15 08:05:58;;;;;;;70.63;31.83;;;;;;;-142.75;100.00;78639.69;5047238;28;20564;-66
2021/12/15 08:08:24;;;;;;;65.22;30.75;;;;;;;-142.75;100.00;78639.69;5048934;28;20029;-67
2021/12/15 08:10:53;;;;;;;63.95;29.88;;;;;;;-142.75;100.00;78637.72;5032006;28;20032;-67
2021/12/15 08:13:19;;;;;;;69.63;30.77;;;;;;;-142.75;100.00;78647.56;5050139;28;20029;-67
2021/12/15 08:15:44;;;;;;;67.65;30.23;;;;;;;-142.75;100.00;78641.66;5046263;28;20029;-68
2021/12/15 08:18:10;;;;;;;63.08;30.40;;;;;;;-142.75;100.00;78637.72;5047695;28;20106;-69
2021/12/15 08:20:37;;;;;;;65.75;31.02;;;;;;;-142.75;100.00;78629.84;5048645;28;20052;-66
2021/12/15 08:23:03;;;;;;;68.88;31.90;;;;;;;-142.75;100.00;78629.84;5050181;28;20048;-66
2021/12/15 08:25:30;;;;;;;64.63;29.77;;;;;;;-142.75;100.00;78639.69;5048614;28;20056;-68
2021/12/15 08:27:55;;;;;;;68.60;30.75;;;;;;;-142.75;100.00;78637.72;5031713;28;20028;-68
2021/12/15 08:30:25;;;;;;;63.22;29.60;;;;;;;-142.75;100.00;78621.97;5032120;28;20021;-68
2021/12/15 08:32:54;;;;;;;61.40;31.20;;;;;;;-142.75;100.00;78631.81;5050809;28;20024;-67
2021/12/15 08:35:24;;;;;;;59.55;29.27;;;;;;;-142.75;100.00;78627.88;5047283;28;20141;-68
2021/12/15 08:37:51;;;;;;;59.42;27.73;;;;;;;-142.75;100.00;78635.75;5051145;28;20025;-68
2021/12/15 08:40:18;;;;;;;;;;;;;;;-142.75;100.00;78625.91;5033024;28;20020;-68
2021/12/15 08:42:43;;;;;;;56.17;28.67;;;;;;;-142.75;100.00;78625.91;5051182;28;20266;-68
2021/12/15 08:45:10;;;;;;;61.58;29.10;;;;;;;-142.75;100.00;78627.88;5051030;28;20033;-69
2021/12/15 08:47:35;;;;;;;58.20;28.30;;;;;;;-142.75;100.00;78621.97;5049753;28;20025;-68
2021/12/15 08:50:04;;;;;;;52.65;27.42;;;;;;;-142.75;100.00;78621.97;5047449;28;20398;-68
2021/12/15 08:52:29;;;;;;;56.03;27.20;;;;;;;-142.75;100.00;78612.13;5033205;28;20017;-68
2021/12/15 08:54:55;;;;;;;56.53;26.50;;;;;;;-142.75;100.00;78606.22;5049464;28;20028;-68
2021/12/15 08:57:20;;;;;;;54.25;26.85;;;;;;;-142.75;100.00;78610.16;5043294;28;20032;-68
2021/12/15 08:59:45;;;;;;;54.42;26.98;;;;;;;-142.75;100.00;78606.22;5031989;28;20050;-68
2021/12/15 09:02:11;;;;;;;54.17;26.90;;;;;;;-142.75;100.00;78621.97;5050759;28;20505;-68
2021/12/15 09:04:36;;;;;;;46.65;24.05;;;;;;;-142.75;100.00;78618.03;5032951;28;20036;-68
2021/12/15 09:07:03;;;;;;;49.85;24.25;;;;;;;-142.75;100.00;78616.06;5031494;28;20056;-67
2021/12/15 09:09:28;;;;;;;42.33;23.77;;;;;;;-142.75;100.00;78620.00;5050706;28;20024;-66
2021/12/15 09:11:55;;;;;;;51.05;24.85;;;;;;;-142.75;100.00;78625.91;5049756;28;20035;-67
2021/12/15 09:14:21;;;;;;;47.75;24.55;;;;;;;-142.75;100.00;78629.84;5030654;28;20375;-66
2021/12/15 09:16:50;;;;;;;43.55;24.20;;;;;;;-142.75;100.00;78623.94;5050381;28;20031;-66
2021/12/15 09:19:16;;;;;;;46.00;24.50;;;;;;;-142.75;100.00;78629.84;5050566;28;20028;-66
2021/12/15 09:21:42;;;;;;;49.78;28.00;;;;;;;-142.75;100.00;78625.91;5031837;28;20013;-67
2021/12/15 09:24:11;;;;;;;46.72;23.85;;;;;;;-142.75;100.00;78631.81;5025074;28;20028;-66
2021/12/15 09:26:37;;;;;;;50.20;24.13;;;;;;;-142.75;100.00;78625.91;5046261;28;20088;-66
2021/12/15 09:29:04;;;;;;;55.45;25.05;;;;;;;-142.75;100.00;78625.91;5048889;28;20494;-65
2021/12/15 09:31:30;;;;;;;44.63;23.45;;;;;;;-142.75;100.00;78627.88;5041718;28;20501;-66
2021/12/15 09:33:57;;;;;;;37.78;21.25;;;;;;;-142.75;100.00;78639.69;5039756;28;20028;-66
2021/12/15 09:36:24;;;;;;;45.50;22.20;;;;;;;-142.75;100.00;78633.78;5024572;28;20039;-66
2021/12/15 09:39:01;;;;;;;46.45;24.27;;;;;;;-142.75;100.00;78639.69;5041887;28;20025;-66
2021/12/15 09:41:26;;;;;;;;;;;;;;;-142.75;100.00;78631.81;5040058;28;20348;-68
2021/12/15 09:43:55;;;;;;;40.00;21.10;;;;;;;-142.75;100.00;78637.72;5048193;28;19934;-65
2021/12/15 09:57:25;;;;;;;48.65;22.85;;;;;;;-142.75;100.00;78641.66;5048687;28;20042;-68
2021/12/15 10:02:54;;;;;;;42.20;22.25;;;;;;;-142.75;100.00;78641.66;5050014;28;20063;-68
2021/12/15 10:19:19;;;;;;;37.35;20.38;;;;;;;-142.75;100.00;78637.72;5049687;28;20106;-68
2021/12/15 10:22:12;;;;;;;37.30;19.52;;;;;;;-142.75;100.00;78631.81;5048691;28;20016;-67
2021/12/15 10:24:56;;;;;;;38.42;19.40;;;;;;;-142.75;100.00;78618.03;5049269;28;20052;-68
2021/12/15 10:27:39;;;;;;;35.35;19.30;;;;;;;-142.75;100.00;78608.19;5048280;28;20021;-68
2021/12/15 10:30:22;;;;;;;32.60;18.13;;;;;;;-142.75;100.00;78610.16;5030704;28;20021;-68
2021/12/15 10:32:51;;;;;;;36.72;18.77;;;;;;;-142.75;100.00;78608.19;5049118;28;20063;-68
2021/12/15 10:35:24;;;;;;;37.22;17.80;;;;;;;-142.75;100.00;78602.28;5049199;28;20077;-68
2021/12/15 10:38:28;;;;;;;34.55;17.58;;;;;;;-142.75;100.00;78586.53;5069557;28;20016;-67
2021/12/15 10:41:03;;;;;;;29.50;16.05;;;;;;;-142.75;100.00;78592.44;5067956;28;20028;-67
2021/12/15 10:43:40;;;;;;;30.98;15.38;;;;;;;-142.75;100.00;78600.31;5066507;28;20020;-67
2021/12/15 10:46:14;;;;;;;33.70;15.73;;;;;;;-142.75;100.00;78600.31;5051996;28;20017;-68
2021/12/15 10:48:53;;;;;;;28.88;15.20;;;;;;;-142.75;100.00;78594.41;5049451;28;20068;-67
2021/12/15 10:51:37;;;;;;;27.23;14.88;;;;;;;-142.75;100.00;78590.47;5063186;28;20681;-67
2021/12/15 10:54:11;;;;;;;28.60;14.88;;;;;;;-142.75;100.00;78582.59;5036664;28;20025;-69
2021/12/15 10:56:40;;;;;;;31.10;13.45;;;;;;;-142.75;100.00;78588.50;5047038;28;20025;-68
2021/12/15 10:59:10;;;;;;;25.23;14.43;;;;;;;-142.75;100.00;78580.59;5035884;28;20033;-67
2021/12/15 11:01:40;;;;;;;27.55;14.60;;;;;;;-142.75;100.00;78576.66;5067736;28;20047;-67
2021/12/15 11:04:24;;;;;;;30.58;14.23;;;;;;;-142.75;100.00;78574.69;5068646;28;20035;-67
2021/12/15 11:07:25;;;;;;;24.13;12.55;;;;;;;-142.75;100.00;78570.75;5068368;28;20016;-67
2021/12/15 11:09:59;;;;;;;24.48;12.27;;;;;;;-142.75;100.00;78570.75;4995295;28;20112;-67
2021/12/15 11:12:26;;;;;;;23.77;12.95;;;;;;;-142.75;100.00;78574.69;5059382;28;20031;-67
2021/12/15 11:15:01;;;;;;;25.63;11.85;;;;;;;-142.75;100.00;78570.75;5047263;28;20394;-66
2021/12/15 11:17:42;;;;;;;24.52;12.50;;;;;;;-142.75;100.00;78574.69;5061078;28;20055;-67
2021/12/15 11:20:14;;;;;;;27.10;11.70;;;;;;;-142.75;100.00;78562.88;5035076;28;20025;-68
2021/12/15 11:22:50;;;;;;;22.52;11.70;;;;;;;-142.75;100.00;78558.94;5051312;28;20116;-68
2021/12/15 11:25:36;;;;;;;22.52;11.68;;;;;;;-142.75;100.00;78551.06;5061043;28;20025;-68
2021/12/15 11:28:28;;;;;;;23.02;10.68;;;;;;;-142.75;100.00;78574.69;5040193;28;20035;-68
2021/12/15 11:31:15;;;;;;;21.30;10.90;;;;;;;-142.75;100.00;78568.78;5047512;28;20044;-67
2021/12/15 11:33:48;;;;;;;21.95;10.32;;;;;;;-142.75;100.00;78562.88;5058160;28;20028;-68
2021/12/15 11:36:25;;;;;;;23.73;10.10;;;;;;;-142.75;100.00;78556.97;5032986;28;20497;-68
2021/12/15 11:39:30;;;;;;;21.92;10.20;;;;;;;-142.75;100.00;78551.06;5051553;28;20087;-66
2021/12/15 11:41:55;;;;;;;24.58;9.80;;;;;;;-142.75;100.00;78566.81;4946432;28;20031;-67
2021/12/15 11:44:23;;;;;;;20.45;10.05;;;;;;;-142.75;100.00;78553.03;4948704;28;20046;-66
2021/12/15 11:46:50;;;;;;;22.55;9.90;;;;;;;-142.75;100.00;78547.13;4997282;28;20067;-67
2021/12/15 11:49:29;;;;;;;23.40;10.48;;;;;;;-142.75;100.00;78551.06;5049627;28;20031;-66
2021/12/15 11:51:57;;;;;;;20.23;9.80;;;;;;;-142.75;100.00;78543.19;5047810;28;20153;-67
2021/12/15 11:54:29;;;;;;;20.20;10.45;;;;;;;-142.75;100.00;78535.31;5049195;28;20028;-67
2021/12/15 11:57:01;;;;;;;20.83;10.45;;;;;;;-142.75;100.00;78531.38;5060968;28;20075;-67
2021/12/15 11:59:44;;;;;;;27.23;11.10;;;;;;;-142.75;100.00;78515.63;5039575;28;20021;-68
2021/12/15 12:02:23;;;;;;;20.20;10.70;;;;;;;-142.75;100.00;78519.56;5060766;28;20021;-66
2021/12/15 12:05:09;;;;;;;19.55;10.52;;;;;;;-142.75;100.00;78527.44;5034425;28;20020;-66
2021/12/15 12:07:38;;;;;;;23.30;11.05;;;;;;;-142.75;100.00;78523.50;5052310;28;20036;-67
2021/12/15 12:10:06;;;;;;;21.00;11.07;;;;;;;-142.75;100.00;78519.56;5052007;28;20035;-67
2021/12/15 12:12:39;;;;;;;22.80;11.07;;;;;;;-142.75;100.00;78521.53;5034827;28;20029;-66
2021/12/15 12:15:13;;;;;;;21.83;10.70;;;;;;;-142.75;100.00;78517.59;5031738;28;20479;-67
2021/12/15 12:17:40;;;;;;;20.75;11.25;;;;;;;-142.75;100.00;78513.66;5051596;28;20107;-66
2021/12/15 12:20:11;;;;;;;21.92;11.52;;;;;;;-142.75;100.00;78503.81;5028592;28;20474;-66
2021/12/15 12:22:38;;;;;;;19.17;10.73;;;;;;;-142.75;100.00;78507.75;5030970;28;20163;-67
2021/12/15 12:25:13;;;;;;;21.75;11.88;;;;;;;-142.75;100.00;78515.63;5032057;28;20020;-66
2021/12/15 12:27:40;;;;;;;24.15;12.63;;;;;;;-142.75;100.00;78521.53;5051662;28;20112;-66